East Haven, Vermont
Current Conditions -  °F | °C
As of 10:15 PM on Monday 26 Jan 2015 (Local Time) from KEFK Reporting Station
Broken Clouds Broken Clouds  
Wind Chill: -6°   Ceiling: 11000
Heat Index:   Visibility: 10mi
Dew Point: -2°   Wind: 6mph
Humidity: 74%   Direction: 350°N
Pressure: 30.07"   Gusts: NA
Location:  44.66°N, 71.89°W
Report Text: KEFK 270315Z AUTO 35005KT 10SM BKN110 M15/M19 A3007 RMK AO2 T11531190
Loading
Personal Weather Stations






























Interactive Weather Map New forecast layout! Learn more

10-Day Weather Forecast

Advertisements
Track Severe Weather on mobile